createdAt,value
2022-08-12T00:02:03.577Z,41.87
2022-08-12T00:04:53.140Z,40.03
2022-08-12T00:07:39.597Z,38.67
2022-08-12T00:10:25.677Z,36.93
2022-08-12T00:13:13.387Z,36.57
2022-08-12T00:16:03.522Z,35.33
2022-08-12T00:18:50.011Z,53.43
2022-08-12T00:21:38.338Z,34.70
2022-08-12T00:24:25.775Z,31.43
2022-08-12T00:27:11.681Z,22.63
2022-08-12T00:29:57.285Z,25.10
2022-08-12T00:32:51.777Z,32.60
2022-08-12T00:35:42.142Z,45.67
2022-08-12T00:38:27.635Z,34.70
2022-08-12T00:41:14.266Z,17.83
2022-08-12T00:43:43.543Z,28.80
2022-08-12T00:46:29.440Z,28.07
2022-08-12T00:48:57.522Z,25.07
2022-08-12T00:51:48.941Z,35.00
2022-08-12T00:54:17.951Z,24.87
2022-08-12T00:56:49.346Z,37.63
2022-08-12T00:59:18.155Z,37.30
2022-08-12T01:02:10.296Z,22.00
2022-08-12T01:04:56.203Z,28.57
2022-08-12T01:07:45.444Z,26.77
2022-08-12T01:10:32.963Z,19.30
2022-08-12T01:13:10.044Z,28.50
2022-08-12T01:15:49.633Z,28.80
2022-08-12T01:18:20.108Z,21.73
2022-08-12T01:21:03.653Z,36.50
2022-08-12T01:24:30.019Z,26.73
2022-08-12T01:26:56.695Z,40.50
2022-08-12T01:29:32.842Z,22.30
2022-08-12T01:32:08.973Z,32.27
2022-08-12T01:34:38.843Z,28.23
2022-08-12T01:37:08.547Z,21.07
2022-08-12T01:40:33.742Z,27.03
2022-08-12T01:42:41.885Z,31.90
2022-08-12T01:45:10.152Z,19.97
2022-08-12T01:48:14.116Z,49.00
2022-08-12T01:51:05.278Z,27.13
2022-08-12T01:53:57.468Z,33.00
2022-08-12T01:56:26.327Z,35.97
2022-08-12T01:59:15.892Z,43.70
2022-08-12T02:01:45.737Z,37.73
2022-08-12T02:05:07.368Z,40.07
2022-08-12T02:08:11.583Z,32.00
2022-08-12T02:11:07.568Z,47.03
2022-08-12T02:14:05.529Z,41.07
2022-08-12T02:16:42.366Z,44.87
2022-08-12T02:19:40.544Z,40.07
2022-08-12T02:22:30.228Z,41.83
2022-08-12T02:25:06.784Z,45.73
2022-08-12T02:27:49.072Z,57.00
2022-08-12T02:30:35.367Z,56.50
2022-08-12T02:33:10.666Z,51.47
2022-08-12T02:35:39.653Z,32.73
2022-08-12T02:38:13.563Z,38.43
2022-08-12T02:40:45.547Z,34.33
2022-08-12T02:43:31.426Z,32.87
2022-08-12T02:46:04.824Z,36.20
2022-08-12T02:48:45.744Z,36.17
2022-08-12T02:51:16.791Z,31.87
2022-08-12T02:53:45.125Z,34.00
2022-08-12T02:56:31.034Z,20.90
2022-08-12T02:59:00.230Z,32.23
2022-08-12T03:01:36.277Z,18.47
2022-08-12T03:04:30.159Z,20.63
2022-08-12T03:07:20.610Z,20.87
2022-08-12T03:10:15.915Z,31.63
2022-08-12T03:12:49.490Z,36.07
2022-08-12T03:15:24.068Z,27.47
2022-08-12T03:18:25.756Z,21.00
2022-08-12T03:20:57.290Z,26.00
2022-08-12T03:23:29.581Z,28.97
2022-08-12T03:26:01.685Z,25.80
2022-08-12T03:28:52.148Z,33.33
2022-08-12T03:31:22.565Z,24.73
2022-08-12T03:34:01.279Z,40.83
2022-08-12T03:36:36.432Z,46.90
2022-08-12T03:39:19.595Z,42.87
2022-08-12T03:41:53.411Z,48.43
2022-08-12T03:44:56.519Z,39.70
2022-08-12T03:47:52.586Z,24.87
2022-08-12T03:50:41.980Z,32.37
2022-08-12T03:53:28.916Z,28.73
2022-08-12T03:56:14.965Z,34.00
2022-08-12T03:59:00.559Z,32.80
2022-08-12T04:01:27.758Z,48.33
2022-08-12T04:03:55.445Z,39.10
2022-08-12T04:06:35.316Z,32.97
2022-08-12T04:09:14.814Z,28.63
2022-08-12T04:12:03.088Z,27.47
2022-08-12T04:14:30.626Z,24.13
2022-08-12T04:16:58.193Z,23.17
2022-08-12T04:19:26.693Z,33.67
2022-08-12T04:22:02.735Z,27.70
2022-08-12T04:24:35.688Z,24.93
2022-08-12T04:27:08.966Z,32.90
2022-08-12T04:30:29.374Z,41.10
2022-08-12T04:32:28.374Z,43.60
2022-08-12T04:34:56.452Z,39.60
2022-08-12T04:37:23.619Z,29.77
2022-08-12T04:39:52.627Z,25.13
2022-08-12T04:42:20.521Z,29.40
2022-08-12T04:44:48.799Z,28.90
2022-08-12T04:47:17.086Z,32.17
2022-08-12T04:49:46.390Z,22.53
2022-08-12T04:52:14.042Z,19.23
2022-08-12T04:54:43.972Z,24.17
2022-08-12T04:57:11.935Z,28.03
2022-08-12T04:59:47.300Z,27.20
2022-08-12T05:02:21.331Z,33.20
2022-08-12T05:04:58.824Z,21.90
2022-08-12T05:07:28.515Z,26.70
2022-08-12T05:10:00.925Z,29.23
2022-08-12T05:12:34.790Z,27.57
2022-08-12T05:15:01.989Z,36.80
2022-08-12T05:17:29.324Z,48.13
2022-08-12T05:19:57.945Z,56.07
2022-08-12T05:22:28.389Z,36.20
2022-08-12T05:24:55.522Z,37.67
2022-08-12T05:27:22.961Z,41.37
2022-08-12T05:30:06.206Z,49.43
2022-08-12T05:32:36.749Z,34.57
2022-08-12T05:35:07.021Z,61.67
2022-08-12T05:37:35.304Z,62.17
2022-08-12T05:40:10.648Z,27.77
2022-08-12T05:42:38.769Z,50.20
2022-08-12T05:45:07.246Z,59.80
2022-08-12T05:47:48.534Z,63.97
2022-08-12T05:50:21.295Z,88.33
2022-08-12T05:52:48.677Z,49.93
2022-08-12T05:55:16.842Z,41.90
2022-08-12T05:57:49.368Z,56.40
2022-08-12T06:00:17.705Z,43.87
2022-08-12T06:02:46.562Z,53.57
2022-08-12T06:05:14.126Z,45.93
2022-08-12T06:08:02.017Z,34.57
2022-08-12T06:10:36.202Z,40.07
2022-08-12T06:13:06.753Z,22.90
2022-08-12T06:15:40.009Z,31.83
2022-08-12T06:18:11.837Z,27.80
2022-08-12T06:20:43.967Z,35.70
2022-08-12T06:23:11.855Z,50.50
2022-08-12T06:25:39.120Z,43.53
2022-08-12T06:28:17.405Z,41.43
2022-08-12T06:30:53.049Z,42.87
2022-08-12T06:33:55.988Z,40.17
2022-08-12T06:36:21.043Z,43.90
2022-08-12T06:38:49.129Z,41.30
2022-08-12T06:41:35.498Z,53.77
2022-08-12T06:44:06.722Z,59.60
2022-08-12T06:46:37.035Z,38.43
2022-08-12T06:49:04.285Z,32.07
2022-08-12T06:51:32.393Z,39.63
2022-08-12T06:54:02.496Z,41.00
2022-08-12T06:57:00.219Z,49.90
2022-08-12T06:59:20.327Z,51.17
2022-08-12T07:01:49.901Z,57.10
2022-08-12T07:07:09.323Z,62.40
2022-08-12T07:10:03.822Z,48.00
2022-08-12T07:12:28.148Z,56.97
2022-08-12T07:14:57.859Z,46.10
2022-08-12T07:17:25.839Z,44.80
2022-08-12T07:19:53.688Z,52.30
2022-08-12T07:22:23.278Z,40.20
2022-08-12T07:25:10.492Z,63.37
2022-08-12T07:27:42.309Z,40.90
2022-08-12T07:30:10.165Z,45.60
2022-08-12T07:32:37.376Z,37.00
2022-08-12T07:35:04.923Z,42.80
2022-08-12T07:37:35.105Z,44.13
2022-08-12T07:40:05.128Z,58.30
2022-08-12T07:42:32.122Z,61.40
2022-08-12T07:44:59.457Z,58.10
2022-08-12T07:47:27.217Z,50.97
2022-08-12T07:50:04.345Z,48.50
2022-08-12T07:52:42.696Z,45.40
2022-08-12T07:55:11.574Z,37.40
2022-08-12T07:57:53.239Z,38.60
2022-08-12T08:00:20.560Z,26.53
2022-08-12T08:02:49.230Z,31.83
2022-08-12T08:05:19.429Z,34.23
2022-08-12T08:07:47.029Z,18.13
2022-08-12T08:10:14.373Z,14.83
2022-08-12T08:12:58.666Z,10.07
2022-08-12T08:16:00.766Z,13.70
2022-08-12T08:18:26.863Z,9.90
2022-08-12T08:20:57.038Z,9.33
2022-08-12T08:23:46.417Z,13.57
2022-08-12T08:26:15.720Z,12.87
2022-08-12T08:28:43.995Z,9.63
2022-08-12T08:34:53.960Z,7.23
2022-08-12T08:49:23.818Z,8.73
2022-08-12T08:51:52.593Z,20.33
2022-08-12T08:54:20.264Z,7.80
2022-08-12T08:56:54.983Z,7.37
2022-08-12T08:59:23.024Z,5.30
2022-08-12T09:01:53.038Z,4.30
2022-08-12T09:05:11.973Z,6.60
2022-08-12T09:07:51.579Z,12.70
2022-08-12T09:10:09.215Z,3.47
2022-08-12T09:13:02.973Z,6.27
2022-08-12T09:15:41.676Z,6.73
2022-08-12T09:18:11.176Z,5.90
2022-08-12T09:20:43.268Z,6.03
2022-08-12T09:26:03.862Z,8.23
2022-08-12T09:28:33.548Z,3.67
2022-08-12T09:31:01.133Z,5.73
2022-08-12T09:34:25.678Z,6.63
2022-08-12T09:36:31.011Z,13.80
2022-08-12T09:40:08.059Z,8.23
2022-08-12T09:42:51.482Z,9.27
2022-08-12T09:45:19.094Z,5.87
2022-08-12T09:47:59.495Z,7.20
2022-08-12T09:50:28.014Z,7.37
2022-08-12T09:53:14.977Z,7.70
2022-08-12T09:56:06.176Z,8.63
2022-08-12T10:01:23.425Z,5.73
2022-08-12T10:06:57.640Z,7.67
2022-08-12T10:09:57.149Z,11.40
2022-08-12T10:12:35.404Z,8.93
2022-08-12T10:15:03.719Z,9.00
2022-08-12T10:17:30.932Z,4.30
2022-08-12T10:19:59.867Z,7.80
2022-08-12T10:22:39.028Z,8.13
2022-08-12T10:26:34.729Z,6.00
2022-08-12T10:28:38.172Z,6.63
2022-08-12T10:31:06.513Z,7.63
2022-08-12T10:34:05.071Z,13.77
2022-08-12T10:36:40.127Z,4.57
2022-08-12T10:40:01.271Z,4.93
2022-08-12T10:42:29.633Z,6.13
2022-08-12T10:45:08.034Z,4.80
2022-08-12T10:48:15.920Z,7.90
2022-08-12T10:50:37.273Z,8.33
2022-08-12T10:53:15.624Z,4.53
2022-08-12T10:55:49.999Z,4.73
2022-08-12T10:58:30.923Z,5.43
2022-08-12T11:01:50.008Z,6.40
2022-08-12T11:04:26.564Z,7.07
2022-08-12T11:07:09.190Z,9.27
2022-08-12T11:09:55.615Z,7.97
2022-08-12T11:12:56.759Z,10.00
2022-08-12T11:14:59.227Z,7.40
2022-08-12T11:17:43.515Z,5.80
2022-08-12T11:20:14.994Z,4.60
2022-08-12T11:22:42.595Z,4.13
2022-08-12T11:25:25.175Z,6.63
2022-08-12T11:28:13.660Z,4.43
2022-08-12T11:30:41.469Z,7.03
2022-08-12T11:33:12.349Z,10.00
2022-08-12T11:35:55.062Z,5.47
2022-08-12T11:38:24.592Z,6.30
2022-08-12T11:40:51.906Z,4.17
2022-08-12T11:43:20.545Z,9.00
2022-08-12T11:45:56.547Z,5.10
2022-08-12T11:48:27.022Z,3.70
2022-08-12T11:50:54.886Z,7.23
2022-08-12T11:53:57.232Z,7.00
2022-08-12T11:56:11.441Z,4.20
2022-08-12T12:01:58.474Z,5.93
2022-08-12T12:02:02.332Z,6.37
2022-08-12T12:04:12.844Z,8.17
2022-08-12T12:06:56.273Z,8.03
2022-08-12T12:09:51.993Z,7.53
2022-08-12T12:12:22.491Z,6.40
2022-08-12T12:14:54.270Z,7.70
2022-08-12T12:17:22.464Z,6.37
2022-08-12T12:19:49.365Z,6.20
2022-08-12T12:22:23.384Z,7.10
2022-08-12T12:24:58.169Z,8.77
2022-08-12T12:27:39.274Z,10.10
2022-08-12T12:30:18.381Z,10.07
2022-08-12T12:32:57.753Z,7.87
2022-08-12T12:36:18.460Z,8.73
2022-08-12T12:38:13.803Z,8.67
2022-08-12T12:40:50.215Z,14.17
2022-08-12T12:43:28.881Z,7.23
2022-08-12T12:46:05.493Z,23.30
2022-08-12T12:48:32.438Z,12.00
2022-08-12T12:51:48.890Z,10.70
2022-08-12T12:54:08.432Z,8.30
2022-08-12T12:56:41.871Z,9.10
2022-08-12T12:59:55.570Z,7.80
2022-08-12T13:01:56.855Z,8.50
2022-08-12T13:04:24.645Z,7.93
2022-08-12T13:06:52.300Z,7.13
2022-08-12T13:09:19.579Z,7.03
2022-08-12T13:11:53.280Z,6.90
2022-08-12T13:14:28.925Z,8.57
2022-08-12T13:17:02.555Z,7.70
2022-08-12T13:19:43.482Z,6.83
2022-08-12T13:22:21.485Z,5.67
2022-08-12T13:24:55.764Z,5.40
2022-08-12T13:27:41.362Z,7.03
2022-08-12T13:30:23.859Z,5.43
2022-08-12T13:32:59.731Z,5.53
2022-08-12T13:36:06.407Z,6.53
2022-08-12T13:38:38.753Z,6.30
2022-08-12T13:41:11.742Z,7.27
2022-08-12T13:43:40.881Z,4.90
2022-08-12T13:46:12.323Z,4.20
2022-08-12T13:48:44.695Z,5.10
2022-08-12T13:51:14.045Z,5.30
2022-08-12T13:53:55.495Z,6.80
2022-08-12T13:56:34.746Z,6.63
2022-08-12T13:59:07.943Z,5.50
2022-08-12T14:01:40.679Z,5.23
2022-08-12T14:04:11.754Z,6.33
2022-08-12T14:06:40.482Z,2.80
2022-08-12T14:09:17.449Z,4.37
2022-08-12T14:11:58.518Z,5.33
2022-08-12T14:14:31.284Z,6.23
2022-08-12T14:17:05.133Z,6.67
2022-08-12T14:19:36.064Z,7.60
2022-08-12T14:22:10.358Z,6.47
2022-08-12T14:24:40.524Z,5.07
2022-08-12T14:27:10.292Z,6.77
2022-08-12T14:30:05.548Z,6.17
2022-08-12T14:32:34.565Z,4.37
2022-08-12T14:35:03.053Z,6.83
2022-08-12T14:37:55.538Z,6.33
2022-08-12T14:40:18.777Z,9.10
2022-08-12T14:42:49.642Z,9.50
2022-08-12T14:45:18.258Z,9.27
2022-08-12T14:47:53.669Z,9.27
2022-08-12T14:50:58.485Z,7.13
2022-08-12T14:55:10.857Z,6.53
2022-08-12T14:59:23.400Z,7.73
2022-08-12T15:01:51.989Z,7.93
2022-08-12T15:04:24.567Z,7.73
2022-08-12T15:06:54.954Z,7.70
2022-08-12T15:09:28.767Z,8.00
2022-08-12T15:12:03.381Z,5.30
2022-08-12T15:14:32.359Z,8.67
2022-08-12T15:17:02.725Z,6.10
2022-08-12T15:20:11.929Z,4.33
2022-08-12T15:22:38.022Z,5.77
2022-08-12T15:25:07.177Z,7.43
2022-08-12T15:28:05.882Z,7.03
2022-08-12T15:30:30.981Z,8.07
2022-08-12T15:32:58.445Z,5.53
2022-08-12T15:35:38.101Z,8.10
2022-08-12T15:38:13.721Z,8.37
2022-08-12T15:40:49.508Z,5.23
2022-08-12T15:44:16.032Z,5.90
2022-08-12T15:46:06.294Z,4.17
2022-08-12T15:48:34.163Z,4.97
2022-08-12T15:51:02.802Z,7.03
2022-08-12T15:53:53.381Z,7.27
2022-08-12T15:56:29.485Z,7.33
2022-08-12T15:58:59.144Z,9.80
2022-08-12T16:01:34.839Z,6.57
2022-08-12T16:04:05.146Z,7.70
2022-08-12T16:09:45.362Z,5.03
2022-08-12T16:12:11.239Z,5.30
2022-08-12T16:14:39.384Z,5.87
2022-08-12T16:17:08.910Z,9.17
2022-08-12T16:20:03.830Z,9.90
2022-08-12T16:22:24.501Z,7.70
2022-08-12T16:24:54.100Z,5.13
2022-08-12T16:27:23.701Z,6.50
2022-08-12T16:29:57.101Z,6.93
2022-08-12T16:32:31.867Z,4.07
2022-08-12T16:35:00.821Z,8.77
2022-08-12T16:38:27.697Z,9.20
2022-08-12T16:40:21.694Z,7.60
2022-08-12T16:42:54.407Z,10.67
2022-08-12T16:46:05.214Z,12.00
2022-08-12T16:48:35.459Z,11.13
2022-08-12T16:51:10.182Z,16.73
2022-08-12T16:53:45.079Z,13.33
2022-08-12T16:56:15.094Z,11.60
2022-08-12T16:58:43.390Z,12.80
2022-08-12T17:01:15.493Z,10.57
2022-08-12T17:03:52.569Z,9.10
2022-08-12T17:06:27.474Z,10.20
2022-08-12T17:09:02.591Z,8.93
2022-08-12T17:11:32.881Z,9.20
2022-08-12T17:14:01.589Z,13.23
2022-08-12T17:16:30.370Z,12.80
2022-08-12T17:18:59.482Z,12.57
2022-08-12T17:21:41.722Z,13.60
2022-08-12T17:24:21.703Z,11.27
2022-08-12T17:26:53.948Z,8.70
2022-08-12T17:29:32.119Z,13.43
2022-08-12T17:32:10.941Z,9.23
2022-08-12T17:34:56.378Z,8.83
2022-08-12T17:37:23.459Z,8.50
2022-08-12T17:40:10.079Z,8.00
2022-08-12T17:42:47.748Z,9.00
2022-08-12T17:45:19.654Z,12.57
2022-08-12T17:48:00.894Z,9.03
2022-08-12T17:50:51.735Z,10.97
2022-08-12T17:53:19.680Z,13.20
2022-08-12T17:55:50.772Z,6.67
2022-08-12T17:58:35.819Z,10.77
2022-08-12T18:01:08.586Z,8.70
2022-08-12T18:04:04.867Z,9.20
2022-08-12T18:06:27.935Z,7.60
2022-08-12T18:08:56.733Z,6.60
2022-08-12T18:12:05.339Z,11.87
2022-08-12T18:14:33.083Z,14.60
2022-08-12T18:17:08.698Z,7.27
2022-08-12T18:20:04.940Z,6.37
2022-08-12T18:22:31.005Z,10.13
2022-08-12T18:25:03.960Z,10.83
2022-08-12T18:27:47.222Z,17.97
2022-08-12T18:30:20.390Z,19.90
2022-08-12T18:32:58.217Z,10.67
2022-08-12T18:35:47.557Z,10.67
2022-08-12T18:38:19.462Z,4.83
2022-08-12T18:41:09.666Z,5.23
2022-08-12T18:43:58.775Z,7.50
2022-08-12T18:46:32.279Z,7.93
2022-08-12T18:49:18.269Z,9.37
2022-08-12T18:52:02.417Z,6.57
2022-08-12T18:54:41.384Z,7.67
2022-08-12T18:57:19.572Z,7.43
2022-08-12T19:00:07.561Z,7.33
2022-08-12T19:02:40.048Z,7.43
2022-08-12T19:05:11.255Z,5.80
2022-08-12T19:08:00.888Z,6.40
2022-08-12T19:10:31.228Z,5.77
2022-08-12T19:13:24.182Z,6.23
2022-08-12T19:15:57.395Z,5.43
2022-08-12T19:18:29.384Z,8.17
2022-08-12T19:20:58.532Z,8.13
2022-08-12T19:23:35.331Z,7.43
2022-08-12T19:26:04.419Z,7.13
2022-08-12T19:28:36.465Z,6.63
2022-08-12T19:31:44.778Z,5.03
2022-08-12T19:38:03.077Z,9.70
2022-08-12T19:40:20.189Z,7.30
2022-08-12T19:43:01.845Z,9.13
2022-08-12T19:45:42.448Z,8.60
2022-08-12T19:48:17.918Z,7.27
2022-08-12T19:50:50.410Z,9.73
2022-08-12T19:53:23.019Z,12.60
2022-08-12T19:55:57.716Z,12.13
2022-08-12T19:58:25.723Z,21.50
2022-08-12T20:00:55.930Z,5.00
2022-08-12T20:03:40.244Z,7.90
2022-08-12T20:06:24.430Z,6.10
2022-08-12T20:08:57.203Z,8.40
2022-08-12T20:12:09.043Z,7.40
2022-08-12T20:14:19.498Z,5.63
2022-08-12T20:16:54.422Z,6.13
2022-08-12T20:19:53.013Z,6.60
2022-08-12T20:22:24.408Z,4.87
2022-08-12T20:25:01.383Z,5.83
2022-08-12T20:28:05.291Z,8.13
2022-08-12T20:30:20.535Z,7.27
2022-08-12T20:33:05.226Z,10.70
2022-08-12T20:36:06.935Z,9.27
2022-08-12T20:38:27.446Z,8.33
2022-08-12T20:40:55.941Z,8.87
2022-08-12T20:43:28.263Z,8.80
2022-08-12T20:45:59.387Z,9.17
2022-08-12T20:48:29.503Z,9.43
2022-08-12T20:51:04.533Z,7.23
2022-08-12T20:53:57.945Z,10.20
2022-08-12T20:56:30.734Z,10.33
2022-08-12T20:59:01.636Z,8.23
2022-08-12T21:01:47.022Z,7.07
2022-08-12T21:04:37.680Z,6.40
2022-08-12T21:07:10.470Z,6.37
2022-08-12T21:09:47.473Z,6.40
2022-08-12T21:12:28.650Z,8.57
2022-08-12T21:15:23.378Z,8.47
2022-08-12T21:18:15.444Z,7.87
2022-08-12T21:20:54.288Z,11.07
2022-08-12T21:23:21.908Z,10.77
2022-08-12T21:25:56.045Z,17.57
2022-08-12T21:28:31.206Z,11.00
2022-08-12T21:32:35.209Z,12.87
2022-08-12T21:34:07.620Z,10.87
2022-08-12T21:36:48.235Z,8.30
2022-08-12T21:39:32.653Z,6.80
2022-08-12T21:42:06.535Z,4.80
2022-08-12T21:45:47.378Z,3.80
2022-08-12T21:47:24.941Z,6.17
2022-08-12T21:50:06.574Z,9.37
2022-08-12T21:52:36.666Z,10.33
2022-08-12T21:55:17.762Z,8.57
2022-08-12T21:57:54.731Z,8.27
2022-08-12T22:00:35.255Z,11.53
2022-08-12T22:04:02.819Z,15.43
2022-08-12T22:06:31.734Z,12.80
2022-08-12T22:09:15.928Z,10.77
2022-08-12T22:11:57.030Z,16.17
2022-08-12T22:14:29.266Z,12.77
2022-08-12T22:16:57.853Z,10.90
2022-08-12T22:19:24.804Z,11.20
2022-08-12T22:21:55.907Z,8.03
2022-08-12T22:24:27.019Z,12.20
2022-08-12T22:27:22.980Z,10.73
2022-08-12T22:30:16.341Z,7.40
2022-08-12T22:32:50.512Z,7.10
2022-08-12T22:35:55.416Z,8.07
2022-08-12T22:38:44.016Z,7.00
2022-08-12T22:41:32.169Z,7.30
2022-08-12T22:44:23.107Z,4.97
2022-08-12T22:46:53.427Z,9.67
2022-08-12T22:49:36.999Z,8.47
2022-08-12T22:52:23.098Z,6.77
2022-08-12T22:55:03.782Z,6.03
2022-08-12T22:57:49.112Z,5.40
2022-08-12T23:00:24.556Z,7.40
2022-08-12T23:02:58.467Z,9.03
2022-08-12T23:05:56.686Z,9.50
2022-08-12T23:08:18.139Z,9.30
2022-08-12T23:10:47.048Z,5.80
2022-08-12T23:13:44.054Z,6.53
2022-08-12T23:16:18.307Z,7.70
2022-08-12T23:19:01.461Z,5.83
2022-08-12T23:22:06.421Z,7.60
2022-08-12T23:24:30.413Z,8.00
2022-08-12T23:27:16.823Z,16.60
2022-08-12T23:29:59.312Z,15.13
2022-08-12T23:32:37.014Z,12.47
2022-08-12T23:35:06.962Z,8.73
2022-08-12T23:37:47.460Z,9.00
2022-08-12T23:40:22.189Z,8.83
2022-08-12T23:42:50.079Z,6.53
2022-08-12T23:45:20.444Z,10.00
2022-08-12T23:47:58.922Z,7.23
2022-08-12T23:50:34.627Z,8.47
2022-08-12T23:53:22.411Z,4.90
2022-08-12T23:55:49.936Z,6.87
2022-08-12T23:58:25.878Z,7.57
